Anchorage/Merrill Field, Alaska
Current Conditions -  °F | °C
As of 8:53 AM on Thursday 29 Jan 2015 (Local Time) from PAMR Reporting Station
Clear Clear  
Wind Chill:   Ceiling: Unl
Heat Index:   Visibility: 10mi
Dew Point: -1°   Wind: 3mph
Humidity: 80%   Direction: 90°E
Pressure: 30.03"   Gusts: NA
Location:  61.21°N, 149.85°W
Report Text: PAMR 291753Z 09003KT 10SM CLR M16/M18 A3003 RMK AO2 SLP174 T11561183 11150 21200 53010
Loading
Personal Weather Stations






























Interactive Weather Map New forecast layout! Learn more

10-Day Weather Forecast

Advertisements
Track Severe Weather on mobile